Packwaukee, WI (53953)

2:28 AM CDT on July 27, 2016 (GMT -0500)
Manley's@Cant Hill | | Change Station

Elev 1000 ft 43.87 °N, 89.49 °W | Updated 10 minutes ago

Partly Cloudy
Partly Cloudy
69.9 °F
Feels Like 69.9 °F
N
0.0
Wind Variable Wind from SSW

Today
High -- | Low -- °F
--% Chance of Precip.
Yesterday
High -- | Low -- °F
Precip. -- in
Pressure 30.03 in
Visibility 10.0 miles
Clouds Few 6500 ft
Dew Point 67 °F
Humidity 89%
Rainfall 0.00 in
Snow Depth Not available.
5:41 AM 8:26 PM
Last Quarter, 46% visible
METAR KY50 270656Z AUTO 00000KT 10SM FEW065 21/19 A3000 RMK AO2 SLP168 T02060194
Pressure 30.03 in
Visibility 10.0 miles
Clouds Few 6500 ft
Dew Point 67 °F
Humidity 89%
Rainfall 0.00 in
Snow Depth Not available.
5:41 AM 8:26 PM
Last Quarter, 46% visible
METAR KY50 270656Z AUTO 00000KT 10SM FEW065 21/19 A3000 RMK AO2 SLP168 T02060194

10-Day Weather Forecast

Almanac

Astronomy

Jul. 27, 2016 Rise Set
Actual Time
Civil Twilight
Nautical Twilight
Astronomical Twilight
Moon
Length of Visible Light
Length of Day
Tomorrow will be .
, % of the Moon is Illuminated

Today's Extremes

State Highs State Lows

Community

WunderPhotos

Upload Photos

1,927,818 photos uploaded!

WunderBlog® & News

Nearby

Air Quality

  Air Quality AQ Index Pollutant
Not available.

Snow Depth

Station Depth Elevation

Earthquake Activity

City Distance Mag. Time & Date
Minimum magnitude displayed is 2.5.

Coastal Water Temperatures

Place Temperature

Stations

Nearby Weather Stations

Station Location Temp. Windchill Dew Point Humidity Wind Precip. Elev Updated Type
                   

Watches & Warnings

There are currently no watches in effect.